Gulbeniz A — TCZK8 — position and weather

sailwx.info

Track history (hours):
 
Tides and Currents Weather Stations Pressure Air Temp Water Temp Dewpoint Dewpoint Depression Visibility Wind Speed Wind Dir Waves Ship Positions

Gulbeniz A

Last reported at 2017-Jan-19 14:29 UTC. Time now 2017-Jan-19 23:35 UTC.
Position N 39°48' E 024°11'.

Length 210 m; draft 9.3 m.

Type: Ship (hazmat cat A). MMSI: 271042493.

Date/timePositionNaut miles runAvg speedWind from/ knotsBaromVisibWave heightAir tempDewpointWater temp
2017-Jan-19 14:29N 39°48' E 024°11'  
2017-Jan-13 23:33N 38°19' E 024°38'411 9.7
2017-Jan-12 05:23N 37°50' E 015°57'1111.0
2017-Jan-12 04:23N 37°53' E 015°44'1010.7
2017-Jan-12 03:27N 37°59' E 015°34'1213.0
2017-Jan-12 02:34N 38°10' E 015°35'1110.6
2017-Jan-12 01:33N 38°20' E 015°38'9 8.9
2017-Jan-12 00:34N 38°27' E 015°30'1211.7
2017-Jan-11 23:33N 38°35' E 015°19'1211.5
2017-Jan-11 22:33N 38°44' E 015°09'1211.5
2017-Jan-11 21:33N 38°49' E 014°56'52010.8
2017-Jan-09 21:22N 43°12' E 005°01'1012.1
2017-Jan-09 20:33N 43°21' E 004°58'7 6.6
2017-Jan-09 19:32N 43°25' E 004°50'0 0.0
2017-Jan-09 18:32N 43°25' E 004°50'0 0.0
2017-Jan-09 17:32N 43°25' E 004°50'0 0.0
2017-Jan-09 16:32N 43°25' E 004°50'0 0.0
2017-Jan-09 15:32N 43°25' E 004°50'  
Track history (hours):
 
Tides and Currents Weather Stations Pressure Air Temp Water Temp Dewpoint Dewpoint Depression Visibility Wind Speed Wind Dir Waves Ship Positions

Gulbeniz A

Last reported at 2017-Jan-19 14:29 UTC. Time now 2017-Jan-19 23:35 UTC.
Position N 39°48' E 024°11'.

Length 210 m; draft 9.3 m.

Type: Ship (hazmat cat A). MMSI: 271042493.

Date/timePositionNaut miles runAvg speedWind from/ knotsBaromVisibWave heightAir tempDewpointWater temp
2017-Jan-19 14:29N 39°48' E 024°11'  
2017-Jan-13 23:33N 38°19' E 024°38'411 9.7
2017-Jan-12 05:23N 37°50' E 015°57'1111.0
2017-Jan-12 04:23N 37°53' E 015°44'1010.7
2017-Jan-12 03:27N 37°59' E 015°34'1213.0
2017-Jan-12 02:34N 38°10' E 015°35'1110.6
2017-Jan-12 01:33N 38°20' E 015°38'9 8.9
2017-Jan-12 00:34N 38°27' E 015°30'1211.7
2017-Jan-11 23:33N 38°35' E 015°19'1211.5
2017-Jan-11 22:33N 38°44' E 015°09'1211.5
2017-Jan-11 21:33N 38°49' E 014°56'52010.8
2017-Jan-09 21:22N 43°12' E 005°01'1012.1
2017-Jan-09 20:33N 43°21' E 004°58'7 6.6
2017-Jan-09 19:32N 43°25' E 004°50'0 0.0
2017-Jan-09 18:32N 43°25' E 004°50'0 0.0
2017-Jan-09 17:32N 43°25' E 004°50'0 0.0
2017-Jan-09 16:32N 43°25' E 004°50'0 0.0
2017-Jan-09 15:32N 43°25' E 004°50'  

Dump ship's entire track history